createdAt,value
2023-01-29T00:00:48.255Z,101919.44
2023-01-29T00:01:51.727Z,101921.47
2023-01-29T00:02:54.521Z,101916.81
2023-01-29T00:03:57.917Z,101917.25
2023-01-29T00:05:09.964Z,101910.13
2023-01-29T00:06:20.183Z,101919.47
2023-01-29T00:07:23.877Z,101915.91
2023-01-29T00:08:27.537Z,101914.31
2023-01-29T00:09:32.361Z,101918.44
2023-01-29T00:10:35.559Z,101910.34
2023-01-29T00:11:39.376Z,101913.72
2023-01-29T00:12:43.843Z,101913.09
2023-01-29T00:13:48.137Z,101916.94
2023-01-29T00:14:51.078Z,101912.91
2023-01-29T00:15:56.680Z,101916.28
2023-01-29T00:16:59.962Z,101919.03
2023-01-29T00:18:02.330Z,101917.47
2023-01-29T00:19:06.507Z,101912.06
2023-01-29T00:20:10.752Z,101913.25
2023-01-29T00:21:15.409Z,101914.25
2023-01-29T00:22:18.093Z,101904.78
2023-01-29T00:23:21.489Z,101907.19
2023-01-29T00:24:25.110Z,101911.38
2023-01-29T00:25:27.703Z,101905.59
2023-01-29T00:26:31.006Z,101903.66
2023-01-29T00:27:33.454Z,101909.47
2023-01-29T00:28:38.945Z,101915.03
2023-01-29T00:29:41.873Z,101911.03
2023-01-29T00:30:45.766Z,101909.56
2023-01-29T00:31:48.317Z,101921.47
2023-01-29T00:32:51.556Z,101918.44
2023-01-29T00:33:53.801Z,101915.41
2023-01-29T00:34:57.442Z,101920.47
2023-01-29T00:36:03.104Z,101927.84
2023-01-29T00:37:09.047Z,101926.09
2023-01-29T00:38:11.529Z,101930.47
2023-01-29T00:39:15.443Z,101924.72
2023-01-29T00:40:18.331Z,101929.03
2023-01-29T00:41:40.522Z,101930.94
2023-01-29T00:43:06.122Z,101933.72
2023-01-29T00:44:28.599Z,101933.25
2023-01-29T00:45:31.928Z,101934.06
2023-01-29T00:46:34.453Z,101940.78
2023-01-29T00:47:37.731Z,101937.22
2023-01-29T00:48:39.948Z,101932.88
2023-01-29T00:49:43.354Z,101939.94
2023-01-29T00:50:46.170Z,101940.81
2023-01-29T00:52:10.629Z,101936.22
2023-01-29T00:53:13.952Z,101946.53
2023-01-29T00:54:16.754Z,101940.50
2023-01-29T00:55:20.175Z,101942.03
2023-01-29T00:56:22.457Z,101950.81
2023-01-29T00:57:27.419Z,101948.44
2023-01-29T00:58:34.404Z,101947.94
2023-01-29T00:59:39.353Z,101949.34
2023-01-29T01:00:41.924Z,101947.78
2023-01-29T01:02:02.749Z,101956.03
2023-01-29T01:03:09.873Z,101954.97
2023-01-29T01:04:12.732Z,101957.34
2023-01-29T01:05:18.369Z,101953.50
2023-01-29T01:06:22.139Z,101959.50
2023-01-29T01:07:24.827Z,101954.63
2023-01-29T01:09:00.112Z,101959.72
2023-01-29T01:10:20.831Z,101958.47
2023-01-29T01:11:24.321Z,101960.63
2023-01-29T01:12:28.624Z,101961.75
2023-01-29T01:13:33.737Z,101960.25
2023-01-29T01:14:37.319Z,101958.09
2023-01-29T01:15:41.475Z,101957.28
2023-01-29T01:16:45.259Z,101957.63
2023-01-29T01:17:49.703Z,101957.41
2023-01-29T01:18:52.558Z,101956.19
2023-01-29T01:19:56.271Z,101964.00
2023-01-29T01:20:59.756Z,101954.78
2023-01-29T01:22:05.064Z,101961.66
2023-01-29T01:23:07.528Z,101970.50
2023-01-29T01:24:11.034Z,101971.50
2023-01-29T01:25:15.535Z,101966.34
2023-01-29T01:26:17.938Z,101967.97
2023-01-29T01:27:21.488Z,101966.16
2023-01-29T01:28:23.985Z,101964.63
2023-01-29T01:29:28.314Z,101963.97
2023-01-29T01:30:33.378Z,101961.28
2023-01-29T01:31:36.863Z,101959.31
2023-01-29T01:32:39.541Z,101963.69
2023-01-29T01:33:42.992Z,101971.50
2023-01-29T01:34:45.701Z,101972.03
2023-01-29T01:35:49.474Z,101973.81
2023-01-29T01:36:52.267Z,101980.78
2023-01-29T01:37:55.752Z,101982.69
2023-01-29T01:38:58.203Z,101976.44
2023-01-29T01:40:01.452Z,101982.41
2023-01-29T01:41:04.169Z,101986.06
2023-01-29T01:42:13.783Z,101984.63
2023-01-29T01:43:16.628Z,101985.94
2023-01-29T01:44:53.586Z,101983.19
2023-01-29T01:45:58.554Z,101978.81
2023-01-29T01:47:02.015Z,101979.81
2023-01-29T01:48:08.815Z,101983.19
2023-01-29T01:49:15.518Z,101984.34
2023-01-29T01:50:23.219Z,101990.91
2023-01-29T01:51:29.319Z,101982.66
2023-01-29T01:52:33.892Z,101992.19
2023-01-29T01:53:41.636Z,101987.63
2023-01-29T01:54:45.777Z,101987.09
2023-01-29T01:55:51.715Z,101997.28
2023-01-29T01:57:04.993Z,101987.59
2023-01-29T01:58:10.638Z,101994.69
2023-01-29T01:59:18.009Z,101991.03
2023-01-29T02:00:22.460Z,101990.06
2023-01-29T02:01:29.228Z,101984.47
2023-01-29T02:02:50.764Z,101983.03
2023-01-29T02:04:15.336Z,101976.56
2023-01-29T02:05:36.384Z,101983.47
2023-01-29T02:06:59.678Z,101984.22
2023-01-29T02:08:20.263Z,101984.59
2023-01-29T02:09:35.072Z,101986.66
2023-01-29T02:10:42.555Z,101979.69
2023-01-29T02:11:46.363Z,101982.06
2023-01-29T02:12:48.974Z,101979.88
2023-01-29T02:13:54.769Z,101977.47
2023-01-29T02:14:57.903Z,101979.78
2023-01-29T02:16:02.720Z,101993.91
2023-01-29T02:17:08.294Z,101979.69
2023-01-29T02:18:11.849Z,101981.97
2023-01-29T02:19:33.344Z,101974.72
2023-01-29T02:20:36.029Z,101973.91
2023-01-29T02:21:55.678Z,101975.84
2023-01-29T02:23:16.194Z,101980.53
2023-01-29T02:24:58.706Z,101974.06
2023-01-29T02:26:36.788Z,101970.03
2023-01-29T02:28:21.455Z,101975.88
2023-01-29T02:29:34.706Z,101968.91
2023-01-29T02:30:44.344Z,101974.72
2023-01-29T02:31:56.227Z,101973.72
2023-01-29T02:33:07.721Z,101965.03
2023-01-29T02:34:21.699Z,101972.78
2023-01-29T02:35:32.154Z,101965.97
2023-01-29T02:36:41.371Z,101964.34
2023-01-29T02:37:56.669Z,101966.63
2023-01-29T02:39:07.791Z,101966.97
2023-01-29T02:40:19.118Z,101968.41
2023-01-29T02:41:27.213Z,101970.03
2023-01-29T02:42:37.320Z,101967.63
2023-01-29T02:43:47.790Z,101967.59
2023-01-29T02:44:59.461Z,101970.31
2023-01-29T02:46:08.485Z,101972.78
2023-01-29T02:47:19.538Z,101966.28
2023-01-29T02:48:26.050Z,101960.97
2023-01-29T02:49:34.998Z,101967.41
2023-01-29T02:50:44.763Z,101966.09
2023-01-29T02:51:57.342Z,101969.28
2023-01-29T02:53:06.392Z,101966.84
2023-01-29T02:54:16.934Z,101961.66
2023-01-29T02:55:24.516Z,101960.38
2023-01-29T02:56:34.357Z,101959.50
2023-01-29T02:57:40.831Z,101961.09
2023-01-29T02:58:47.603Z,101968.13
2023-01-29T02:59:57.200Z,101963.25
2023-01-29T03:01:04.034Z,101970.56
2023-01-29T03:02:12.154Z,101970.38
2023-01-29T03:03:18.708Z,101973.28
2023-01-29T03:04:25.986Z,101970.50
2023-01-29T03:05:34.133Z,101971.28
2023-01-29T03:06:43.404Z,101965.97
2023-01-29T03:07:52.521Z,101970.91
2023-01-29T03:09:00.421Z,101971.13
2023-01-29T03:10:05.036Z,101977.69
2023-01-29T03:11:15.316Z,101973.63
2023-01-29T03:12:33.915Z,101971.00
2023-01-29T03:13:45.484Z,101974.88
2023-01-29T03:15:10.114Z,101980.59
2023-01-29T03:16:21.851Z,101980.63
2023-01-29T03:17:33.089Z,101988.31
2023-01-29T03:18:45.978Z,101987.66
2023-01-29T03:19:49.772Z,101995.44
2023-01-29T03:20:58.557Z,101990.88
2023-01-29T03:22:06.467Z,101993.81
2023-01-29T03:23:15.770Z,101995.56
2023-01-29T03:24:41.041Z,101992.69
2023-01-29T03:26:03.800Z,101999.47
2023-01-29T03:27:30.988Z,101998.84
2023-01-29T03:28:52.917Z,101996.75
2023-01-29T03:30:16.103Z,101996.88
2023-01-29T03:31:38.770Z,101994.94
2023-01-29T03:32:44.252Z,102006.91
2023-01-29T03:33:50.865Z,102002.38
2023-01-29T03:34:59.412Z,102004.00
2023-01-29T03:36:09.244Z,102004.00
2023-01-29T03:37:19.334Z,101996.06
2023-01-29T03:38:21.758Z,101994.69
2023-01-29T03:39:28.546Z,101996.66
2023-01-29T03:40:37.093Z,102003.31
2023-01-29T03:41:47.796Z,101997.06
2023-01-29T03:42:59.461Z,102004.00
2023-01-29T03:44:14.139Z,102000.53
2023-01-29T03:45:22.270Z,102000.81
2023-01-29T03:46:31.550Z,102007.09
2023-01-29T03:47:43.888Z,101993.53
2023-01-29T03:48:57.250Z,102002.81
2023-01-29T03:50:03.300Z,102010.56
2023-01-29T03:51:17.952Z,102007.47
2023-01-29T03:52:24.008Z,101999.28
2023-01-29T03:53:32.160Z,102006.69
2023-01-29T03:54:43.146Z,102003.94
2023-01-29T03:55:56.020Z,102002.88
2023-01-29T03:57:05.339Z,102010.16
2023-01-29T03:58:22.771Z,102007.69
2023-01-29T03:59:35.851Z,102005.75
2023-01-29T04:00:44.489Z,102007.38
2023-01-29T04:01:53.150Z,102007.34
2023-01-29T04:03:04.578Z,102008.66
2023-01-29T04:04:14.508Z,102004.09
2023-01-29T04:05:22.517Z,102011.13
2023-01-29T04:06:30.521Z,102012.44
2023-01-29T04:07:36.811Z,102009.66
2023-01-29T04:08:48.549Z,102008.84
2023-01-29T04:09:56.286Z,102002.00
2023-01-29T04:11:02.166Z,102011.09
2023-01-29T04:12:09.833Z,102002.13
2023-01-29T04:13:15.405Z,102002.38
2023-01-29T04:14:19.618Z,102001.25
2023-01-29T04:15:25.546Z,102011.13
2023-01-29T04:16:32.784Z,102003.94
2023-01-29T04:17:40.613Z,101996.84
2023-01-29T04:18:46.713Z,102002.50
2023-01-29T04:19:49.273Z,102013.28
2023-01-29T04:20:53.634Z,102013.19
2023-01-29T04:22:04.349Z,102016.13
2023-01-29T04:23:08.718Z,102019.03
2023-01-29T04:24:13.963Z,102011.94
2023-01-29T04:25:26.773Z,102018.75
2023-01-29T04:26:48.146Z,102014.16
2023-01-29T04:27:58.813Z,102014.03
2023-01-29T04:29:19.360Z,102013.69
2023-01-29T04:30:33.833Z,102016.75
2023-01-29T04:31:46.960Z,102009.66
2023-01-29T04:33:03.503Z,102007.66
2023-01-29T04:34:21.027Z,102003.94
2023-01-29T04:35:32.043Z,101998.63
2023-01-29T04:36:42.081Z,102002.66
2023-01-29T04:37:51.101Z,102004.09
2023-01-29T04:39:05.607Z,102003.72
2023-01-29T04:40:32.344Z,102005.97
2023-01-29T04:41:42.311Z,102012.59
2023-01-29T04:42:51.893Z,102007.97
2023-01-29T04:44:02.989Z,102017.34
2023-01-29T04:45:16.731Z,102010.06
2023-01-29T04:46:26.169Z,102009.94
2023-01-29T04:47:35.921Z,102014.66
2023-01-29T04:48:53.110Z,102015.97
2023-01-29T04:50:03.643Z,102018.09
2023-01-29T04:51:13.783Z,102025.50
2023-01-29T04:52:25.342Z,102026.16
2023-01-29T04:53:37.323Z,102026.78
2023-01-29T04:54:56.166Z,102025.19
2023-01-29T04:56:08.022Z,102022.78
2023-01-29T04:57:17.514Z,102025.50
2023-01-29T04:58:28.851Z,102020.50
2023-01-29T04:59:37.937Z,102024.53
2023-01-29T05:00:43.214Z,102025.50
2023-01-29T05:01:47.863Z,102029.72
2023-01-29T05:02:52.483Z,102024.41
2023-01-29T05:03:59.567Z,102027.41
2023-01-29T05:05:03.954Z,102025.66
2023-01-29T05:06:08.270Z,102023.41
2023-01-29T05:07:15.272Z,102021.31
2023-01-29T05:08:20.708Z,102027.44
2023-01-29T05:09:25.663Z,102021.91
2023-01-29T05:10:28.489Z,102022.88
2023-01-29T05:11:33.798Z,102019.34
2023-01-29T05:12:38.731Z,102028.31
2023-01-29T05:13:44.381Z,102027.31
2023-01-29T05:14:48.488Z,102036.78
2023-01-29T05:15:57.463Z,102035.84
2023-01-29T05:17:04.432Z,102038.28
2023-01-29T05:18:10.368Z,102037.94
2023-01-29T05:19:15.790Z,102040.41
2023-01-29T05:20:19.480Z,102040.53
2023-01-29T05:21:23.593Z,102033.84
2023-01-29T05:22:28.676Z,102039.50
2023-01-29T05:23:31.240Z,102030.81
2023-01-29T05:24:34.518Z,102034.34
2023-01-29T05:25:37.105Z,102039.50
2023-01-29T05:26:59.011Z,102033.84
2023-01-29T05:28:12.020Z,102042.97
2023-01-29T05:29:14.887Z,102038.31
2023-01-29T05:30:19.035Z,102033.00
2023-01-29T05:31:21.478Z,102033.53
2023-01-29T05:32:24.849Z,102039.31
2023-01-29T05:33:29.633Z,102043.06
2023-01-29T05:34:34.311Z,102042.34
2023-01-29T05:35:37.672Z,102043.84
2023-01-29T05:36:40.025Z,102040.69
2023-01-29T05:37:43.452Z,102040.56
2023-01-29T05:38:45.947Z,102043.34
2023-01-29T05:39:49.471Z,102038.19
2023-01-29T05:40:52.150Z,102040.03
2023-01-29T05:41:55.724Z,102044.09
2023-01-29T05:42:58.025Z,102038.13
2023-01-29T05:44:01.334Z,102054.34
2023-01-29T05:45:03.944Z,102048.94
2023-01-29T05:46:07.624Z,102047.81
2023-01-29T05:47:09.959Z,102055.56
2023-01-29T05:48:13.518Z,102047.94
2023-01-29T05:49:17.405Z,102052.66
2023-01-29T05:50:22.293Z,102062.16
2023-01-29T05:51:24.797Z,102054.81
2023-01-29T05:52:28.294Z,102053.47
2023-01-29T05:53:31.914Z,102060.38
2023-01-29T05:54:35.304Z,102051.03
2023-01-29T05:55:37.631Z,102052.94
2023-01-29T05:56:41.005Z,102048.59
2023-01-29T05:57:43.777Z,102052.00
2023-01-29T05:58:47.427Z,102049.41
2023-01-29T05:59:49.778Z,102047.00
2023-01-29T06:00:53.310Z,102048.28
2023-01-29T06:01:56.991Z,102063.97
2023-01-29T06:02:59.381Z,102053.31
2023-01-29T06:04:02.907Z,102057.06
2023-01-29T06:05:05.742Z,102051.88
2023-01-29T06:06:11.353Z,102057.97
2023-01-29T06:07:14.038Z,102062.88
2023-01-29T06:08:17.607Z,102064.88
2023-01-29T06:09:19.949Z,102060.34
2023-01-29T06:10:23.335Z,102065.53
2023-01-29T06:11:25.935Z,102065.25
2023-01-29T06:12:29.593Z,102062.25
2023-01-29T06:13:31.953Z,102066.13
2023-01-29T06:14:35.434Z,102064.56
2023-01-29T06:15:40.454Z,102069.69
2023-01-29T06:16:43.930Z,102068.88
2023-01-29T06:17:46.247Z,102064.72
2023-01-29T06:18:49.952Z,102067.50
2023-01-29T06:19:52.509Z,102064.19
2023-01-29T06:20:56.070Z,102065.72
2023-01-29T06:21:59.953Z,102074.59
2023-01-29T06:23:03.755Z,102062.91
2023-01-29T06:24:06.604Z,102072.31
2023-01-29T06:25:11.084Z,102074.63
2023-01-29T06:26:16.018Z,102070.63
2023-01-29T06:27:19.388Z,102080.09
2023-01-29T06:28:22.242Z,102076.19
2023-01-29T06:29:25.494Z,102087.75
2023-01-29T06:30:28.581Z,102087.56
2023-01-29T06:31:38.661Z,102092.53
2023-01-29T06:32:41.847Z,102092.88
2023-01-29T06:33:45.186Z,102094.34
2023-01-29T06:34:49.467Z,102099.91
2023-01-29T06:35:57.297Z,102099.69
2023-01-29T06:37:00.991Z,102100.16
2023-01-29T06:38:04.277Z,102102.31
2023-01-29T06:39:06.426Z,102103.16
2023-01-29T06:40:11.091Z,102103.50
2023-01-29T06:41:17.144Z,102108.03
2023-01-29T06:42:20.647Z,102110.31
2023-01-29T06:43:23.748Z,102115.47
2023-01-29T06:44:27.729Z,102127.63
2023-01-29T06:45:30.173Z,102116.44
2023-01-29T06:46:33.449Z,102121.47
2023-01-29T06:47:36.028Z,102114.81
2023-01-29T06:48:39.382Z,102116.28
2023-01-29T06:49:41.669Z,102124.72
2023-01-29T06:50:45.437Z,102120.19
2023-01-29T06:51:47.710Z,102118.41
2023-01-29T06:52:52.440Z,102126.00
2023-01-29T06:53:56.285Z,102113.22
2023-01-29T06:54:59.839Z,102124.88
2023-01-29T06:56:02.409Z,102124.19
2023-01-29T06:57:05.953Z,102127.38
2023-01-29T06:58:08.938Z,102127.78
2023-01-29T06:59:12.502Z,102130.13
2023-01-29T07:00:16.126Z,102137.00
2023-01-29T07:01:34.544Z,102137.91
2023-01-29T07:02:38.416Z,102140.09
2023-01-29T07:03:42.614Z,102142.44
2023-01-29T07:04:44.948Z,102143.53
2023-01-29T07:05:53.198Z,102148.94
2023-01-29T07:06:55.503Z,102147.44
2023-01-29T07:08:00.168Z,102142.97
2023-01-29T07:09:03.916Z,102153.47
2023-01-29T07:10:07.452Z,102145.63
2023-01-29T07:11:11.286Z,102153.75
2023-01-29T07:12:13.616Z,102153.34
2023-01-29T07:13:17.445Z,102150.50
2023-01-29T07:14:19.773Z,102156.97
2023-01-29T07:15:23.210Z,102160.34
2023-01-29T07:16:26.513Z,102160.66
2023-01-29T07:17:29.931Z,102166.53
2023-01-29T07:18:32.978Z,102161.13
2023-01-29T07:19:36.406Z,102167.31
2023-01-29T07:20:39.772Z,102166.22
2023-01-29T07:21:43.145Z,102167.81
2023-01-29T07:22:45.637Z,102167.72
2023-01-29T07:23:50.758Z,102176.50
2023-01-29T07:24:53.321Z,102181.81
2023-01-29T07:25:56.794Z,102178.56
2023-01-29T07:26:59.726Z,102175.72
2023-01-29T07:28:03.406Z,102180.84
2023-01-29T07:29:06.665Z,102177.16
2023-01-29T07:30:09.982Z,102174.78
2023-01-29T07:31:15.494Z,102175.22
2023-01-29T07:32:17.887Z,102170.56
2023-01-29T07:33:21.067Z,102178.97
2023-01-29T07:34:23.649Z,102180.91
2023-01-29T07:35:26.995Z,102179.81
2023-01-29T07:36:30.018Z,102186.19
2023-01-29T07:37:33.493Z,102192.38
2023-01-29T07:38:35.962Z,102191.88
2023-01-29T07:39:41.010Z,102195.59
2023-01-29T07:40:43.641Z,102187.09
2023-01-29T07:41:46.978Z,102189.75
2023-01-29T07:42:49.265Z,102197.00
2023-01-29T07:43:52.991Z,102200.66
2023-01-29T07:44:55.261Z,102206.34
2023-01-29T07:46:03.710Z,102199.03
2023-01-29T07:47:06.398Z,102203.09
2023-01-29T07:48:12.789Z,102209.72
2023-01-29T07:49:15.633Z,102215.09
2023-01-29T07:50:19.276Z,102215.63
2023-01-29T07:51:21.608Z,102223.94
2023-01-29T07:52:24.973Z,102215.88
2023-01-29T07:53:27.733Z,102219.84
2023-01-29T07:54:32.080Z,102223.28
2023-01-29T07:55:35.893Z,102227.34
2023-01-29T07:56:39.077Z,102233.25
2023-01-29T07:57:41.257Z,102226.88
2023-01-29T07:58:45.153Z,102224.97
2023-01-29T07:59:47.598Z,102224.59
2023-01-29T08:00:51.101Z,102231.00
2023-01-29T08:01:53.283Z,102235.44
2023-01-29T08:03:03.739Z,102228.66
2023-01-29T08:04:05.971Z,102248.66
2023-01-29T08:05:10.398Z,102240.31
2023-01-29T08:06:13.583Z,102246.06
2023-01-29T08:07:15.850Z,102249.38
2023-01-29T08:08:19.481Z,102247.72
2023-01-29T08:09:21.655Z,102247.91
2023-01-29T08:10:24.951Z,102248.00
2023-01-29T08:11:29.730Z,102251.91
2023-01-29T08:12:32.075Z,102254.38
2023-01-29T08:13:35.627Z,102256.69
2023-01-29T08:14:37.849Z,102265.03
2023-01-29T08:15:44.208Z,102266.94
2023-01-29T08:16:46.571Z,102260.88
2023-01-29T08:17:57.780Z,102271.88
2023-01-29T08:19:02.775Z,102268.47
2023-01-29T08:20:08.791Z,102271.03
2023-01-29T08:21:13.007Z,102272.25
2023-01-29T08:22:17.384Z,102274.50
2023-01-29T08:23:19.647Z,102275.06
2023-01-29T08:24:25.832Z,102276.41
2023-01-29T08:25:35.609Z,102268.88
2023-01-29T08:26:39.260Z,102273.88
2023-01-29T08:27:42.817Z,102283.72
2023-01-29T08:28:46.451Z,102279.03
2023-01-29T08:29:48.817Z,102289.19
2023-01-29T08:30:52.080Z,102281.19
2023-01-29T08:31:54.531Z,102286.03
2023-01-29T08:32:58.194Z,102288.56
2023-01-29T08:34:00.503Z,102288.47
2023-01-29T08:35:04.051Z,102293.72
2023-01-29T08:36:08.313Z,102292.28
2023-01-29T08:37:11.729Z,102283.97
2023-01-29T08:38:14.102Z,102287.63
2023-01-29T08:39:17.378Z,102289.16
2023-01-29T08:40:20.152Z,102286.69
2023-01-29T08:41:23.638Z,102284.75
2023-01-29T08:42:27.479Z,102285.25
2023-01-29T08:43:30.835Z,102294.13
2023-01-29T08:44:34.524Z,102292.69
2023-01-29T08:45:41.422Z,102292.69
2023-01-29T08:46:44.722Z,102294.63
2023-01-29T08:47:48.074Z,102294.81
2023-01-29T08:48:51.707Z,102299.13
2023-01-29T08:49:54.015Z,102297.09
2023-01-29T08:50:58.879Z,102300.81
2023-01-29T08:52:03.044Z,102302.31
2023-01-29T08:53:09.305Z,102301.28
2023-01-29T08:54:12.789Z,102311.41
2023-01-29T08:55:15.385Z,102307.38
2023-01-29T08:56:18.725Z,102309.72
2023-01-29T08:57:21.481Z,102306.66
2023-01-29T08:58:26.546Z,102306.22
2023-01-29T08:59:30.612Z,102311.50
2023-01-29T09:00:33.711Z,102313.91
2023-01-29T09:01:37.440Z,102307.78
2023-01-29T09:02:39.846Z,102310.84
2023-01-29T09:03:44.529Z,102316.25
2023-01-29T09:04:46.737Z,102313.50
2023-01-29T09:05:50.062Z,102311.25
2023-01-29T09:06:53.778Z,102315.91
2023-01-29T09:07:57.087Z,102311.78
2023-01-29T09:09:00.830Z,102319.19
2023-01-29T09:10:03.671Z,102323.00
2023-01-29T09:11:07.409Z,102323.03
2023-01-29T09:12:10.015Z,102314.22
2023-01-29T09:13:13.397Z,102329.06
2023-01-29T09:14:17.300Z,102328.69
2023-01-29T09:15:20.500Z,102327.31
2023-01-29T09:16:22.881Z,102327.69
2023-01-29T09:17:26.237Z,102325.78
2023-01-29T09:18:30.031Z,102333.06
2023-01-29T09:19:32.207Z,102328.31
2023-01-29T09:20:37.928Z,102340.00
2023-01-29T09:21:40.117Z,102332.19
2023-01-29T09:22:43.429Z,102337.34
2023-01-29T09:23:46.671Z,102335.09
2023-01-29T09:24:49.073Z,102339.16
2023-01-29T09:25:52.366Z,102339.47
2023-01-29T09:26:54.733Z,102336.97
2023-01-29T09:27:57.998Z,102338.06
2023-01-29T09:29:01.519Z,102341.25
2023-01-29T09:30:07.340Z,102343.13
2023-01-29T09:31:10.584Z,102342.56
2023-01-29T09:32:14.617Z,102343.25
2023-01-29T09:33:18.431Z,102349.97
2023-01-29T09:34:20.841Z,102331.84
2023-01-29T09:35:24.832Z,102348.63
2023-01-29T09:36:28.074Z,102340.09
2023-01-29T09:37:30.522Z,102345.63
2023-01-29T09:38:33.965Z,102336.53
2023-01-29T09:39:36.426Z,102339.47
2023-01-29T09:40:51.795Z,102332.78
2023-01-29T09:42:01.775Z,102343.34
2023-01-29T09:43:08.899Z,102352.19
2023-01-29T09:44:18.189Z,102343.16
2023-01-29T09:45:24.852Z,102352.03
2023-01-29T09:46:36.007Z,102350.19
2023-01-29T09:47:41.221Z,102351.91
2023-01-29T09:48:47.818Z,102348.97
2023-01-29T09:49:56.519Z,102350.00
2023-01-29T09:51:04.956Z,102355.75
2023-01-29T09:52:15.289Z,102358.34
2023-01-29T09:53:23.257Z,102360.59
2023-01-29T09:54:30.861Z,102356.91
2023-01-29T09:55:38.610Z,102367.31
2023-01-29T09:56:43.479Z,102358.34
2023-01-29T09:57:51.506Z,102361.91
2023-01-29T09:58:53.937Z,102363.03
2023-01-29T09:59:57.236Z,102358.34
2023-01-29T10:01:13.587Z,102355.19
2023-01-29T10:02:37.947Z,102352.00
2023-01-29T10:04:09.188Z,102355.94
2023-01-29T10:05:25.879Z,102354.16
2023-01-29T10:06:42.516Z,102365.44
2023-01-29T10:08:14.701Z,102355.84
2023-01-29T10:09:59.397Z,102358.53
2023-01-29T10:11:11.811Z,102360.25
2023-01-29T10:12:28.267Z,102356.50
2023-01-29T10:13:44.783Z,102361.44
2023-01-29T10:14:56.911Z,102366.97
2023-01-29T10:16:15.348Z,102368.56
2023-01-29T10:17:34.569Z,102364.53
2023-01-29T10:19:17.331Z,102363.94
2023-01-29T10:20:50.972Z,102361.38
2023-01-29T10:22:07.559Z,102357.97
2023-01-29T10:23:23.401Z,102352.38
2023-01-29T10:24:37.725Z,102359.16
2023-01-29T10:25:43.378Z,102363.28
2023-01-29T10:26:46.938Z,102360.22
2023-01-29T10:27:53.360Z,102368.78
2023-01-29T10:28:58.970Z,102359.97
2023-01-29T10:30:04.032Z,102358.16
2023-01-29T10:31:15.610Z,102357.78
2023-01-29T10:32:21.734Z,102356.94
2023-01-29T10:33:48.845Z,102360.88
2023-01-29T10:34:59.989Z,102352.38
2023-01-29T10:36:07.125Z,102352.56
2023-01-29T10:37:18.683Z,102354.81
2023-01-29T10:38:47.887Z,102353.38
2023-01-29T10:39:51.599Z,102356.69
2023-01-29T10:40:59.558Z,102357.53
2023-01-29T10:42:16.326Z,102356.63
2023-01-29T10:43:29.411Z,102356.41
2023-01-29T10:44:47.651Z,102357.78
2023-01-29T10:45:59.117Z,102353.06
2023-01-29T10:47:17.750Z,102363.16
2023-01-29T10:48:45.981Z,102361.28
2023-01-29T10:50:13.125Z,102357.75
2023-01-29T10:51:28.936Z,102360.59
2023-01-29T10:52:44.868Z,102350.53
2023-01-29T10:54:02.157Z,102356.69
2023-01-29T10:55:18.483Z,102348.88
2023-01-29T10:56:53.850Z,102343.09
2023-01-29T10:58:09.341Z,102352.41
2023-01-29T10:59:26.531Z,102341.78
2023-01-29T11:00:36.105Z,102336.47
2023-01-29T11:01:39.743Z,102340.50
2023-01-29T11:02:48.954Z,102338.06
2023-01-29T11:03:59.500Z,102336.53
2023-01-29T11:05:02.006Z,102339.06
2023-01-29T11:06:13.904Z,102328.78
2023-01-29T11:07:19.687Z,102337.34
2023-01-29T11:08:28.395Z,102327.06
2023-01-29T11:09:37.340Z,102326.50
2023-01-29T11:10:46.245Z,102319.63
2023-01-29T11:11:54.037Z,102327.19
2023-01-29T11:12:58.984Z,102325.53
2023-01-29T11:14:07.793Z,102324.13
2023-01-29T11:15:19.683Z,102330.63
2023-01-29T11:16:23.833Z,102318.56
2023-01-29T11:17:26.762Z,102320.09
2023-01-29T11:18:50.736Z,102322.97
2023-01-29T11:19:56.616Z,102319.91
2023-01-29T11:21:04.523Z,102318.03
2023-01-29T11:22:15.116Z,102323.50
2023-01-29T11:23:26.665Z,102319.78
2023-01-29T11:24:31.053Z,102321.75
2023-01-29T11:25:33.682Z,102319.78
2023-01-29T11:26:40.863Z,102312.53
2023-01-29T11:27:46.494Z,102313.75
2023-01-29T11:28:51.047Z,102304.66
2023-01-29T11:29:55.253Z,102305.31
2023-01-29T11:30:57.945Z,102303.50
2023-01-29T11:32:04.948Z,102311.34
2023-01-29T11:33:13.291Z,102309.84
2023-01-29T11:34:20.846Z,102313.53
2023-01-29T11:35:26.382Z,102309.19
2023-01-29T11:36:35.236Z,102306.44
2023-01-29T11:37:40.709Z,102304.66
2023-01-29T11:38:43.561Z,102305.44
2023-01-29T11:39:47.656Z,102296.69
2023-01-29T11:40:51.176Z,102297.09
2023-01-29T11:41:56.943Z,102302.88
2023-01-29T11:43:14.411Z,102296.91
2023-01-29T11:44:28.992Z,102297.91
2023-01-29T11:45:33.885Z,102298.56
2023-01-29T11:46:41.072Z,102291.34
2023-01-29T11:47:50.278Z,102297.00
2023-01-29T11:48:59.217Z,102293.00
2023-01-29T11:50:23.440Z,102283.34
2023-01-29T11:51:28.759Z,102286.38
2023-01-29T11:52:37.131Z,102282.84
2023-01-29T11:53:43.214Z,102277.72
2023-01-29T11:54:49.960Z,102293.22
2023-01-29T11:55:55.933Z,102277.84
2023-01-29T11:56:58.765Z,102287.72
2023-01-29T11:58:05.637Z,102280.50
2023-01-29T11:59:30.634Z,102281.06
2023-01-29T12:00:37.183Z,102283.78
2023-01-29T12:01:42.746Z,102278.91
2023-01-29T12:02:50.430Z,102277.91
2023-01-29T12:03:55.103Z,102269.25
2023-01-29T12:05:01.890Z,102272.25
2023-01-29T12:06:08.627Z,102276.38
2023-01-29T12:07:16.021Z,102269.63
2023-01-29T12:08:19.270Z,102273.22
2023-01-29T12:09:27.328Z,102267.50
2023-01-29T12:10:35.670Z,102271.47
2023-01-29T12:11:38.435Z,102262.53
2023-01-29T12:12:43.487Z,102263.59
2023-01-29T12:13:55.908Z,102252.69
2023-01-29T12:15:22.521Z,102265.50
2023-01-29T12:16:29.501Z,102256.00
2023-01-29T12:17:38.012Z,102254.22
2023-01-29T12:18:44.807Z,102258.47
2023-01-29T12:19:52.384Z,102266.75
2023-01-29T12:20:58.820Z,102262.28
2023-01-29T12:22:07.425Z,102263.06
2023-01-29T12:23:29.414Z,102257.03
2023-01-29T12:24:36.830Z,102249.84
2023-01-29T12:25:46.363Z,102258.41
2023-01-29T12:26:56.589Z,102257.72
2023-01-29T12:28:06.039Z,102249.50
2023-01-29T12:29:25.312Z,102252.47
2023-01-29T12:30:35.809Z,102250.22
2023-01-29T12:31:47.854Z,102246.97
2023-01-29T12:32:55.933Z,102251.63
2023-01-29T12:34:07.191Z,102245.88
2023-01-29T12:35:18.670Z,102244.75
2023-01-29T12:36:28.156Z,102244.22
2023-01-29T12:37:44.846Z,102236.31
2023-01-29T12:38:47.213Z,102236.72
2023-01-29T12:39:52.254Z,102239.41
2023-01-29T12:41:00.120Z,102245.22
2023-01-29T12:42:10.588Z,102239.19
2023-01-29T12:43:17.889Z,102235.19
2023-01-29T12:44:25.519Z,102234.94
2023-01-29T12:45:30.580Z,102235.47
2023-01-29T12:46:41.019Z,102231.16
2023-01-29T12:47:48.594Z,102229.69
2023-01-29T12:48:53.113Z,102229.44
2023-01-29T12:49:59.696Z,102215.56
2023-01-29T12:51:09.247Z,102231.72